Terminal Aerodrome Forecast
Issued by NWS

Home | Current Version | Previous Version | Text Only | Print | Product List | Glossary On
Versions: 1 2 3 4 5 6 7 8 9 10 11 12 13 14 15 16 17
031
FTUS46 KEKA 090525
TAFCEC
TAF
KCEC 090525Z 0906/1006 20012KT 3SM -RA BR FEW005 SCT010 OVC015
      TEMPO 0906/0910 2SM -RA BR OVC004
     FM091600 19012KT 3SM SHRA BR OVC010
     FM092200 19012KT 4SM -SHRA BR OVC015
     FM100100 20011KT 2SM -RA BR SCT010 OVC015=

USA.gov is the U.S. government's official web portal to all federal, state and local government web resources and services.